This is the latest recevied weather packets stored in our database for station/object N7AWM. If no packets are shown the sender has not sent any weather packets the latest 10 day(s).
| Time | Temp. | Humidity | Pressure | Rain* | Wind** | Luminosity | Snow |
|---|---|---|---|---|---|---|---|
| 1778084632 | 23.33° C | 42% | 1008.7 hPa | 0 mm | - | - | - |
| 1778083792 | 23.33° C | 43% | 1008.8 hPa | 0 mm | - | - | - |
| 1778082952 | 23.33° C | 39% | 1009 hPa | 0 mm | - | - | - |
| 1778082112 | 22.78° C | 40% | 1009.2 hPa | 0 mm | - | - | - |
| 1778081272 | 22.22° C | 42% | 1009.2 hPa | 0 mm | - | - | - |
| 1778080432 | 21.11° C | 46% | 1009.2 hPa | 0 mm | - | - | - |
| 1778079592 | 21.11° C | 45% | 1009.2 hPa | 0 mm | - | - | - |
| 1778078752 | 20.56° C | 44% | 1009.1 hPa | 0 mm | - | - | - |
| 1778077912 | 20° C | 45% | 1009 hPa | 0 mm | - | - | - |
| 1778077072 | 20° C | 45% | 1009 hPa | 0 mm | - | - | - |
| 1778076232 | 20° C | 45% | 1009.1 hPa | 0 mm | - | - | - |
| 1778075392 | 20° C | 43% | 1009 hPa | 0 mm | - | - | - |
| 1778074552 | 20° C | 44% | 1008.9 hPa | 0 mm | - | - | - |
| 1778073712 | 19.44° C | 42% | 1008.8 hPa | 0 mm | - | - | - |
| 1778072872 | 18.89° C | 43% | 1008.8 hPa | 0 mm | - | - | - |
| 1778072033 | 18.89° C | 44% | 1008.5 hPa | 0 mm | - | - | - |
| 1778071193 | 18.89° C | 43% | 1008.5 hPa | 0 mm | - | - | - |
| 1778070353 | 18.89° C | 42% | 1008.4 hPa | 0 mm | - | - | - |
| 1778069513 | 18.89° C | 41% | 1008.4 hPa | 0 mm | - | - | - |
| 1778068673 | 19.44° C | 41% | 1008.4 hPa | 0 mm | - | - | - |
| 1778067833 | 19.44° C | 40% | 1008.2 hPa | 0 mm | - | - | - |
| 1778066993 | 19.44° C | 39% | 1008.2 hPa | 0 mm | - | - | - |
| 1778066153 | 19.44° C | 39% | 1008.1 hPa | 0 mm | - | - | - |
| 1778065313 | 19.44° C | 37% | 1008 hPa | 0 mm | - | - | - |
| 1778064473 | 18.89° C | 41% | 1007.8 hPa | 0 mm | - | - | - |
* Rain latest hour (hover to see other rain measurements)
** Current wind speed in m/s (hover to see current wind gust speed)